Terminal Aerodrome Forecast
Issued by NWS Duluth, MN

Home | Current Version | Previous Version | Text Only | Print | Product List | Glossary On
Versions: 1 2 3 4 5 6 7 8 9 10 11 12 13 14 15 16
279
FTUS43 KDLH 240638 AAA
TAFINL
TAF AMD
KINL 240638Z 2407/2506 VRB03KT 3SM BR FEW005 SCT060
      TEMPO 2407/2411 1/2SM FG OVC003
     FM241400 34006KT P6SM SCT070
     FM241800 02007KT P6SM VCTS SCT035CB BKN070
     FM242300 04005KT P6SM SCT070=

USA.gov is the U.S. government's official web portal to all federal, state and local government web resources and services.